This is the latest recevied weather packets stored in our database for station/object W1HS. If no packets are shown the sender has not sent any weather packets the latest 10 day(s).
| Time | Temp. | Humidity | Pressure | Rain* | Wind** | Luminosity | Snow |
|---|---|---|---|---|---|---|---|
| 1777447818 | 4.44° C | 78% | 998.1 hPa | 0 mm | - | 0 W/m² | - |
| 1777447218 | 4.44° C | 78% | 998.3 hPa | 0 mm | - | 0 W/m² | - |
| 1777446618 | 4.44° C | 78% | 998.5 hPa | 0 mm | - | 0 W/m² | - |
| 1777446018 | 4.44° C | 76% | 998.7 hPa | 0 mm | - | 0 W/m² | - |
| 1777445420 | 4.44° C | 76% | 999 hPa | 0 mm | - | 0 W/m² | - |
| 1777444820 | 4.44° C | 75% | 999.3 hPa | 0 mm | - | 0 W/m² | - |
| 1777444218 | 4.44° C | 74% | 999.5 hPa | 0 mm | - | 0 W/m² | - |
| 1777443619 | 4.44° C | 73% | 999.3 hPa | 0 mm | - | 0 W/m² | - |
| 1777443019 | 5° C | 74% | 999.2 hPa | 0 mm | - | 0 W/m² | - |
| 1777442418 | 5° C | 72% | 999.1 hPa | 0 mm | - | 0 W/m² | - |
| 1777441818 | 5° C | 71% | 999.6 hPa | 0 mm | - | 0 W/m² | - |
| 1777441218 | 5° C | 69% | 999.9 hPa | 0 mm | - | 0 W/m² | - |
| 1777440618 | 5.56° C | 69% | 999.9 hPa | 0 mm | - | 0 W/m² | - |
| 1777440018 | 5.56° C | 69% | 999.8 hPa | 0 mm | - | 0 W/m² | - |
| 1777439418 | 5.56° C | 67% | 999.5 hPa | 0 mm | - | 0 W/m² | - |
| 1777438821 | 6.11° C | 65% | 999.5 hPa | 0 mm | - | 0 W/m² | - |
| 1777438219 | 6.11° C | 66% | 999.5 hPa | 0 mm | - | 0 W/m² | - |
| 1777437618 | 6.11° C | 65% | 999.2 hPa | 0 mm | - | 0 W/m² | - |
| 1777437020 | 6.67° C | 64% | 999.3 hPa | 0 mm | - | 0 W/m² | - |
| 1777435219 | 7.22° C | 59% | 998.9 hPa | 0 mm | - | 0 W/m² | - |
| 1777416018 | 16.11° C | 43% | 998.1 hPa | 0 mm | - | 77 W/m² | - |
| 1777414220 | 17.22° C | 41% | 998.2 hPa | 0 mm | - | 105 W/m² | - |
| 1777413622 | 17.22° C | 41% | 998.2 hPa | 0 mm | - | 120 W/m² | - |
| 1777411820 | 18.33° C | 39% | 998.5 hPa | 0 mm | - | 153 W/m² | - |
| 1777411220 | 18.33° C | 39% | 998.6 hPa | 0 mm | - | 179 W/m² | - |
* Rain latest hour (hover to see other rain measurements)
** Current wind speed in m/s (hover to see current wind gust speed)